sensor_id;sensor_type;location;lat;lon;timestamp;P1;durP1;ratioP1;P2;durP2;ratioP2
41711;SDS011;27399;51.516;13.670;2023-03-31T00:02:10;5.32;;;1.60;;
41711;SDS011;27399;51.516;13.670;2023-03-31T00:04:39;5.93;;;1.70;;
41711;SDS011;27399;51.516;13.670;2023-03-31T00:07:13;3.75;;;1.15;;
41711;SDS011;27399;51.516;13.670;2023-03-31T00:09:40;2.08;;;1.02;;
41711;SDS011;27399;51.516;13.670;2023-03-31T00:12:10;2.87;;;1.20;;
41711;SDS011;27399;51.516;13.670;2023-03-31T00:14:37;4.07;;;1.20;;
41711;SDS011;27399;51.516;13.670;2023-03-31T00:17:03;3.75;;;1.38;;
41711;SDS011;27399;51.516;13.670;2023-03-31T00:19:29;7.60;;;1.30;;
41711;SDS011;27399;51.516;13.670;2023-03-31T00:21:57;3.75;;;1.30;;
41711;SDS011;27399;51.516;13.670;2023-03-31T00:24:26;3.15;;;1.40;;
41711;SDS011;27399;51.516;13.670;2023-03-31T00:26:52;5.18;;;1.63;;
41711;SDS011;27399;51.516;13.670;2023-03-31T00:29:18;7.47;;;1.50;;
41711;SDS011;27399;51.516;13.670;2023-03-31T00:31:43;6.85;;;1.63;;
41711;SDS011;27399;51.516;13.670;2023-03-31T00:34:09;3.25;;;1.85;;
41711;SDS011;27399;51.516;13.670;2023-03-31T00:36:35;4.22;;;1.48;;
41711;SDS011;27399;51.516;13.670;2023-03-31T00:39:09;4.90;;;1.60;;
41711;SDS011;27399;51.516;13.670;2023-03-31T00:41:36;4.97;;;1.80;;
41711;SDS011;27399;51.516;13.670;2023-03-31T00:44:07;5.53;;;1.60;;
41711;SDS011;27399;51.516;13.670;2023-03-31T00:46:55;6.18;;;1.33;;
41711;SDS011;27399;51.516;13.670;2023-03-31T00:49:28;7.07;;;1.58;;
41711;SDS011;27399;51.516;13.670;2023-03-31T00:52:21;6.68;;;1.85;;
41711;SDS011;27399;51.516;13.670;2023-03-31T00:54:56;5.75;;;1.52;;
41711;SDS011;27399;51.516;13.670;2023-03-31T00:57:27;4.30;;;1.67;;
41711;SDS011;27399;51.516;13.670;2023-03-31T00:59:58;7.57;;;1.63;;
41711;SDS011;27399;51.516;13.670;2023-03-31T01:02:34;6.85;;;1.48;;
41711;SDS011;27399;51.516;13.670;2023-03-31T01:05:05;5.18;;;1.20;;
41711;SDS011;27399;51.516;13.670;2023-03-31T01:07:43;3.33;;;1.27;;
41711;SDS011;27399;51.516;13.670;2023-03-31T01:10:12;6.20;;;1.58;;
41711;SDS011;27399;51.516;13.670;2023-03-31T01:12:38;4.25;;;1.27;;
41711;SDS011;27399;51.516;13.670;2023-03-31T01:15:07;8.20;;;1.58;;
41711;SDS011;27399;51.516;13.670;2023-03-31T01:17:33;5.03;;;1.20;;
41711;SDS011;27399;51.516;13.670;2023-03-31T01:33:59;8.50;;;1.27;;
41711;SDS011;27399;51.516;13.670;2023-03-31T01:42:38;4.63;;;1.52;;
41711;SDS011;27399;51.516;13.670;2023-03-31T01:50:47;6.00;;;1.70;;
41711;SDS011;27399;51.516;13.670;2023-03-31T01:56:38;8.30;;;2.05;;
41711;SDS011;27399;51.516;13.670;2023-03-31T01:59:12;6.10;;;1.63;;
41711;SDS011;27399;51.516;13.670;2023-03-31T02:01:57;7.38;;;1.30;;
41711;SDS011;27399;51.516;13.670;2023-03-31T02:04:32;4.97;;;1.20;;
41711;SDS011;27399;51.516;13.670;2023-03-31T02:07:03;6.28;;;1.27;;
41711;SDS011;27399;51.516;13.670;2023-03-31T02:09:35;8.77;;;1.60;;
41711;SDS011;27399;51.516;13.670;2023-03-31T02:12:07;12.48;;;1.65;;
41711;SDS011;27399;51.516;13.670;2023-03-31T02:14:36;7.97;;;1.55;;
41711;SDS011;27399;51.516;13.670;2023-03-31T02:17:07;5.65;;;1.48;;
41711;SDS011;27399;51.516;13.670;2023-03-31T02:19:42;7.20;;;1.30;;
41711;SDS011;27399;51.516;13.670;2023-03-31T02:22:11;8.55;;;2.30;;
41711;SDS011;27399;51.516;13.670;2023-03-31T02:24:38;5.00;;;1.98;;
41711;SDS011;27399;51.516;13.670;2023-03-31T02:27:11;5.65;;;1.90;;
41711;SDS011;27399;51.516;13.670;2023-03-31T02:29:38;7.60;;;1.85;;
41711;SDS011;27399;51.516;13.670;2023-03-31T02:35:05;6.45;;;1.38;;
41711;SDS011;27399;51.516;13.670;2023-03-31T02:37:36;5.07;;;1.45;;
41711;SDS011;27399;51.516;13.670;2023-03-31T02:40:07;7.50;;;1.88;;
41711;SDS011;27399;51.516;13.670;2023-03-31T02:42:37;5.97;;;1.80;;
41711;SDS011;27399;51.516;13.670;2023-03-31T02:45:05;7.57;;;1.90;;
41711;SDS011;27399;51.516;13.670;2023-03-31T02:47:51;12.50;;;2.92;;
41711;SDS011;27399;51.516;13.670;2023-03-31T02:50:18;6.30;;;2.10;;
41711;SDS011;27399;51.516;13.670;2023-03-31T02:52:55;10.27;;;2.30;;
41711;SDS011;27399;51.516;13.670;2023-03-31T02:55:59;10.95;;;2.80;;
41711;SDS011;27399;51.516;13.670;2023-03-31T02:59:01;7.72;;;2.42;;
41711;SDS011;27399;51.516;13.670;2023-03-31T03:02:07;8.85;;;2.08;;
41711;SDS011;27399;51.516;13.670;2023-03-31T03:04:36;10.52;;;2.28;;
41711;SDS011;27399;51.516;13.670;2023-03-31T03:07:35;13.45;;;2.60;;
41711;SDS011;27399;51.516;13.670;2023-03-31T03:10:16;10.05;;;1.83;;
41711;SDS011;27399;51.516;13.670;2023-03-31T03:15:54;11.25;;;2.42;;
41711;SDS011;27399;51.516;13.670;2023-03-31T03:18:26;7.90;;;2.22;;
41711;SDS011;27399;51.516;13.670;2023-03-31T03:20:52;8.15;;;2.15;;
41711;SDS011;27399;51.516;13.670;2023-03-31T03:23:17;11.88;;;1.55;;
41711;SDS011;27399;51.516;13.670;2023-03-31T03:25:43;6.40;;;1.42;;
41711;SDS011;27399;51.516;13.670;2023-03-31T03:28:10;5.97;;;1.50;;
41711;SDS011;27399;51.516;13.670;2023-03-31T03:30:35;10.27;;;1.98;;
41711;SDS011;27399;51.516;13.670;2023-03-31T03:33:01;4.65;;;1.63;;
41711;SDS011;27399;51.516;13.670;2023-03-31T03:35:30;4.88;;;1.73;;
41711;SDS011;27399;51.516;13.670;2023-03-31T03:37:56;3.50;;;1.40;;
41711;SDS011;27399;51.516;13.670;2023-03-31T03:40:21;7.50;;;1.63;;
41711;SDS011;27399;51.516;13.670;2023-03-31T03:42:47;10.77;;;1.63;;
41711;SDS011;27399;51.516;13.670;2023-03-31T03:45:13;5.07;;;1.60;;
41711;SDS011;27399;51.516;13.670;2023-03-31T03:47:38;5.65;;;1.38;;
41711;SDS011;27399;51.516;13.670;2023-03-31T03:50:04;6.90;;;1.60;;
41711;SDS011;27399;51.516;13.670;2023-03-31T03:52:30;11.25;;;2.03;;
41711;SDS011;27399;51.516;13.670;2023-03-31T03:54:56;9.98;;;1.58;;
41711;SDS011;27399;51.516;13.670;2023-03-31T03:57:22;7.15;;;1.92;;
41711;SDS011;27399;51.516;13.670;2023-03-31T03:59:47;5.13;;;1.85;;
41711;SDS011;27399;51.516;13.670;2023-03-31T04:02:13;5.78;;;1.40;;
41711;SDS011;27399;51.516;13.670;2023-03-31T04:04:38;9.27;;;2.95;;
41711;SDS011;27399;51.516;13.670;2023-03-31T04:07:04;11.02;;;1.77;;
41711;SDS011;27399;51.516;13.670;2023-03-31T04:09:30;6.75;;;1.35;;
41711;SDS011;27399;51.516;13.670;2023-03-31T04:11:55;12.18;;;2.42;;
41711;SDS011;27399;51.516;13.670;2023-03-31T04:14:21;9.77;;;1.42;;
41711;SDS011;27399;51.516;13.670;2023-03-31T04:16:47;8.23;;;1.85;;
41711;SDS011;27399;51.516;13.670;2023-03-31T04:19:13;5.78;;;1.33;;
41711;SDS011;27399;51.516;13.670;2023-03-31T04:21:41;10.20;;;1.60;;
41711;SDS011;27399;51.516;13.670;2023-03-31T04:24:09;8.25;;;1.40;;
41711;SDS011;27399;51.516;13.670;2023-03-31T04:26:36;8.40;;;1.85;;
41711;SDS011;27399;51.516;13.670;2023-03-31T04:29:11;8.70;;;1.58;;
41711;SDS011;27399;51.516;13.670;2023-03-31T04:31:40;7.80;;;1.20;;
41711;SDS011;27399;51.516;13.670;2023-03-31T04:34:07;6.35;;;1.50;;
41711;SDS011;27399;51.516;13.670;2023-03-31T04:36:38;8.60;;;1.35;;
41711;SDS011;27399;51.516;13.670;2023-03-31T04:39:07;5.57;;;1.50;;
41711;SDS011;27399;51.516;13.670;2023-03-31T04:41:34;3.83;;;1.30;;
41711;SDS011;27399;51.516;13.670;2023-03-31T04:44:00;5.25;;;1.27;;
41711;SDS011;27399;51.516;13.670;2023-03-31T04:46:26;5.07;;;1.33;;
41711;SDS011;27399;51.516;13.670;2023-03-31T04:48:52;9.10;;;1.65;;
41711;SDS011;27399;51.516;13.670;2023-03-31T04:51:17;14.77;;;2.30;;
41711;SDS011;27399;51.516;13.670;2023-03-31T04:53:44;3.60;;;1.30;;
41711;SDS011;27399;51.516;13.670;2023-03-31T04:56:11;6.03;;;2.10;;
41711;SDS011;27399;51.516;13.670;2023-03-31T04:58:37;7.63;;;1.88;;
41711;SDS011;27399;51.516;13.670;2023-03-31T05:01:03;4.35;;;1.73;;
41711;SDS011;27399;51.516;13.670;2023-03-31T05:03:33;7.78;;;1.70;;
41711;SDS011;27399;51.516;13.670;2023-03-31T05:05:58;8.80;;;1.52;;
41711;SDS011;27399;51.516;13.670;2023-03-31T05:08:25;7.28;;;1.40;;
41711;SDS011;27399;51.516;13.670;2023-03-31T05:10:51;3.22;;;1.15;;
41711;SDS011;27399;51.516;13.670;2023-03-31T05:13:17;10.90;;;1.80;;
41711;SDS011;27399;51.516;13.670;2023-03-31T05:15:43;3.30;;;1.48;;
41711;SDS011;27399;51.516;13.670;2023-03-31T05:18:14;5.35;;;1.30;;
41711;SDS011;27399;51.516;13.670;2023-03-31T05:20:40;4.03;;;1.80;;
41711;SDS011;27399;51.516;13.670;2023-03-31T05:23:06;8.32;;;1.60;;
41711;SDS011;27399;51.516;13.670;2023-03-31T05:25:32;4.97;;;1.48;;
41711;SDS011;27399;51.516;13.670;2023-03-31T05:27:58;7.38;;;1.50;;
41711;SDS011;27399;51.516;13.670;2023-03-31T05:30:25;5.05;;;1.52;;
41711;SDS011;27399;51.516;13.670;2023-03-31T05:32:51;5.50;;;1.52;;
41711;SDS011;27399;51.516;13.670;2023-03-31T05:35:17;5.53;;;2.10;;
41711;SDS011;27399;51.516;13.670;2023-03-31T05:37:43;7.63;;;1.65;;
41711;SDS011;27399;51.516;13.670;2023-03-31T05:40:09;6.10;;;1.35;;
41711;SDS011;27399;51.516;13.670;2023-03-31T05:42:35;5.57;;;1.25;;
41711;SDS011;27399;51.516;13.670;2023-03-31T05:45:01;7.13;;;1.83;;
41711;SDS011;27399;51.516;13.670;2023-03-31T05:47:26;9.13;;;1.50;;
41711;SDS011;27399;51.516;13.670;2023-03-31T05:49:52;6.70;;;1.65;;
41711;SDS011;27399;51.516;13.670;2023-03-31T05:52:17;4.38;;;1.20;;
41711;SDS011;27399;51.516;13.670;2023-03-31T05:54:43;8.27;;;1.60;;
41711;SDS011;27399;51.516;13.670;2023-03-31T05:57:09;7.47;;;1.45;;
41711;SDS011;27399;51.516;13.670;2023-03-31T05:59:34;4.70;;;1.40;;
41711;SDS011;27399;51.516;13.670;2023-03-31T06:02:01;3.20;;;1.30;;
41711;SDS011;27399;51.516;13.670;2023-03-31T06:04:27;7.47;;;1.50;;
41711;SDS011;27399;51.516;13.670;2023-03-31T06:10:14;4.03;;;1.33;;
41711;SDS011;27399;51.516;13.670;2023-03-31T06:12:40;7.55;;;1.38;;
41711;SDS011;27399;51.516;13.670;2023-03-31T06:15:06;9.50;;;1.85;;
41711;SDS011;27399;51.516;13.670;2023-03-31T06:17:32;6.15;;;2.00;;
41711;SDS011;27399;51.516;13.670;2023-03-31T06:19:57;10.65;;;1.90;;
41711;SDS011;27399;51.516;13.670;2023-03-31T06:22:23;6.53;;;1.88;;
41711;SDS011;27399;51.516;13.670;2023-03-31T06:24:48;6.68;;;1.60;;
41711;SDS011;27399;51.516;13.670;2023-03-31T06:27:14;5.15;;;1.55;;
41711;SDS011;27399;51.516;13.670;2023-03-31T06:29:40;4.65;;;1.33;;
41711;SDS011;27399;51.516;13.670;2023-03-31T06:32:05;7.00;;;1.55;;
41711;SDS011;27399;51.516;13.670;2023-03-31T06:34:31;8.07;;;1.35;;
41711;SDS011;27399;51.516;13.670;2023-03-31T06:36:56;6.57;;;1.73;;
41711;SDS011;27399;51.516;13.670;2023-03-31T06:39:22;3.13;;;1.15;;
41711;SDS011;27399;51.516;13.670;2023-03-31T06:41:48;5.72;;;1.50;;
41711;SDS011;27399;51.516;13.670;2023-03-31T06:44:13;3.97;;;1.08;;
41711;SDS011;27399;51.516;13.670;2023-03-31T06:46:41;3.80;;;1.15;;
41711;SDS011;27399;51.516;13.670;2023-03-31T06:49:07;6.22;;;1.13;;
41711;SDS011;27399;51.516;13.670;2023-03-31T06:51:32;5.25;;;1.48;;
41711;SDS011;27399;51.516;13.670;2023-03-31T06:53:58;4.93;;;1.33;;
41711;SDS011;27399;51.516;13.670;2023-03-31T06:56:24;5.13;;;1.10;;
41711;SDS011;27399;51.516;13.670;2023-03-31T06:58:51;6.60;;;1.20;;
41711;SDS011;27399;51.516;13.670;2023-03-31T07:01:16;4.85;;;1.17;;
41711;SDS011;27399;51.516;13.670;2023-03-31T07:03:42;3.13;;;1.08;;
41711;SDS011;27399;51.516;13.670;2023-03-31T07:06:08;5.85;;;1.17;;
41711;SDS011;27399;51.516;13.670;2023-03-31T07:08:33;4.47;;;0.95;;
41711;SDS011;27399;51.516;13.670;2023-03-31T07:11:00;5.40;;;1.20;;
41711;SDS011;27399;51.516;13.670;2023-03-31T07:13:27;3.97;;;1.10;;
41711;SDS011;27399;51.516;13.670;2023-03-31T07:15:53;7.20;;;1.23;;
41711;SDS011;27399;51.516;13.670;2023-03-31T07:18:19;3.83;;;1.42;;
41711;SDS011;27399;51.516;13.670;2023-03-31T07:20:48;8.73;;;1.20;;
41711;SDS011;27399;51.516;13.670;2023-03-31T07:23:17;5.55;;;1.10;;
41711;SDS011;27399;51.516;13.670;2023-03-31T07:25:45;5.03;;;1.27;;
41711;SDS011;27399;51.516;13.670;2023-03-31T07:28:11;5.10;;;1.40;;
41711;SDS011;27399;51.516;13.670;2023-03-31T07:30:36;2.38;;;1.17;;
41711;SDS011;27399;51.516;13.670;2023-03-31T07:33:02;7.18;;;1.00;;
41711;SDS011;27399;51.516;13.670;2023-03-31T07:35:28;5.75;;;1.23;;
41711;SDS011;27399;51.516;13.670;2023-03-31T07:37:53;7.30;;;1.20;;
41711;SDS011;27399;51.516;13.670;2023-03-31T07:40:20;5.53;;;1.08;;
41711;SDS011;27399;51.516;13.670;2023-03-31T07:42:48;5.80;;;1.17;;
41711;SDS011;27399;51.516;13.670;2023-03-31T07:45:16;7.85;;;1.58;;
41711;SDS011;27399;51.516;13.670;2023-03-31T07:47:42;5.93;;;1.42;;
41711;SDS011;27399;51.516;13.670;2023-03-31T07:50:10;5.10;;;1.38;;
41711;SDS011;27399;51.516;13.670;2023-03-31T07:52:36;8.73;;;1.50;;
41711;SDS011;27399;51.516;13.670;2023-03-31T07:55:02;9.10;;;1.40;;
41711;SDS011;27399;51.516;13.670;2023-03-31T07:57:28;3.65;;;1.40;;
41711;SDS011;27399;51.516;13.670;2023-03-31T07:59:54;4.43;;;1.52;;
41711;SDS011;27399;51.516;13.670;2023-03-31T08:02:20;7.50;;;1.60;;
41711;SDS011;27399;51.516;13.670;2023-03-31T08:04:45;4.57;;;1.25;;
41711;SDS011;27399;51.516;13.670;2023-03-31T08:07:12;4.45;;;1.20;;
41711;SDS011;27399;51.516;13.670;2023-03-31T08:09:39;6.15;;;1.50;;
41711;SDS011;27399;51.516;13.670;2023-03-31T08:12:07;6.13;;;1.80;;
41711;SDS011;27399;51.516;13.670;2023-03-31T08:14:33;10.88;;;2.05;;
41711;SDS011;27399;51.516;13.670;2023-03-31T08:16:58;4.30;;;1.63;;
41711;SDS011;27399;51.516;13.670;2023-03-31T08:19:24;9.02;;;2.40;;
41711;SDS011;27399;51.516;13.670;2023-03-31T08:21:50;6.50;;;1.83;;
41711;SDS011;27399;51.516;13.670;2023-03-31T08:24:16;8.07;;;1.70;;
41711;SDS011;27399;51.516;13.670;2023-03-31T08:26:42;10.88;;;1.90;;
41711;SDS011;27399;51.516;13.670;2023-03-31T08:29:08;7.63;;;1.33;;
41711;SDS011;27399;51.516;13.670;2023-03-31T08:31:33;4.15;;;1.05;;
41711;SDS011;27399;51.516;13.670;2023-03-31T08:33:59;4.65;;;1.25;;
41711;SDS011;27399;51.516;13.670;2023-03-31T08:36:27;4.60;;;1.20;;
41711;SDS011;27399;51.516;13.670;2023-03-31T08:38:53;9.38;;;1.90;;
41711;SDS011;27399;51.516;13.670;2023-03-31T08:43:55;11.98;;;1.50;;
41711;SDS011;27399;51.516;13.670;2023-03-31T08:46:25;5.18;;;1.40;;
41711;SDS011;27399;51.516;13.670;2023-03-31T08:48:55;5.40;;;1.45;;
41711;SDS011;27399;51.516;13.670;2023-03-31T08:51:41;5.72;;;1.25;;
41711;SDS011;27399;51.516;13.670;2023-03-31T08:54:19;6.55;;;1.35;;
41711;SDS011;27399;51.516;13.670;2023-03-31T08:56:55;4.78;;;1.38;;
41711;SDS011;27399;51.516;13.670;2023-03-31T08:59:26;9.48;;;1.50;;
41711;SDS011;27399;51.516;13.670;2023-03-31T09:02:03;6.07;;;1.65;;
41711;SDS011;27399;51.516;13.670;2023-03-31T09:07:38;9.60;;;1.70;;
41711;SDS011;27399;51.516;13.670;2023-03-31T09:10:53;4.72;;;1.33;;
41711;SDS011;27399;51.516;13.670;2023-03-31T09:13:22;3.75;;;1.10;;
41711;SDS011;27399;51.516;13.670;2023-03-31T09:18:45;5.63;;;1.83;;
41711;SDS011;27399;51.516;13.670;2023-03-31T09:21:25;8.85;;;2.35;;
41711;SDS011;27399;51.516;13.670;2023-03-31T09:29:20;9.98;;;2.85;;
41711;SDS011;27399;51.516;13.670;2023-03-31T09:31:53;8.38;;;3.15;;
41711;SDS011;27399;51.516;13.670;2023-03-31T09:34:24;11.30;;;1.70;;
41711;SDS011;27399;51.516;13.670;2023-03-31T09:36:53;7.70;;;2.10;;
41711;SDS011;27399;51.516;13.670;2023-03-31T09:39:19;6.75;;;1.80;;
41711;SDS011;27399;51.516;13.670;2023-03-31T09:41:46;4.93;;;1.75;;
41711;SDS011;27399;51.516;13.670;2023-03-31T09:44:56;8.65;;;1.85;;
41711;SDS011;27399;51.516;13.670;2023-03-31T09:47:05;7.22;;;1.50;;
41711;SDS011;27399;51.516;13.670;2023-03-31T09:49:36;10.70;;;2.58;;
41711;SDS011;27399;51.516;13.670;2023-03-31T09:52:05;13.63;;;2.38;;
41711;SDS011;27399;51.516;13.670;2023-03-31T09:54:48;14.52;;;2.25;;
41711;SDS011;27399;51.516;13.670;2023-03-31T09:57:25;9.07;;;1.65;;
41711;SDS011;27399;51.516;13.670;2023-03-31T09:59:52;8.05;;;2.17;;
41711;SDS011;27399;51.516;13.670;2023-03-31T10:05:02;5.25;;;1.23;;
41711;SDS011;27399;51.516;13.670;2023-03-31T10:07:29;7.20;;;1.38;;
41711;SDS011;27399;51.516;13.670;2023-03-31T10:09:55;7.60;;;1.35;;
41711;SDS011;27399;51.516;13.670;2023-03-31T10:12:23;6.75;;;1.85;;
41711;SDS011;27399;51.516;13.670;2023-03-31T10:14:52;9.63;;;1.33;;
41711;SDS011;27399;51.516;13.670;2023-03-31T10:17:24;10.27;;;1.48;;
41711;SDS011;27399;51.516;13.670;2023-03-31T10:19:57;8.75;;;1.45;;
41711;SDS011;27399;51.516;13.670;2023-03-31T10:22:30;8.02;;;1.30;;
41711;SDS011;27399;51.516;13.670;2023-03-31T10:25:07;5.25;;;1.33;;
41711;SDS011;27399;51.516;13.670;2023-03-31T10:27:39;10.80;;;1.92;;
41711;SDS011;27399;51.516;13.670;2023-03-31T10:30:09;4.55;;;1.08;;
41711;SDS011;27399;51.516;13.670;2023-03-31T10:32:38;8.48;;;1.30;;
41711;SDS011;27399;51.516;13.670;2023-03-31T10:35:10;10.13;;;1.30;;
41711;SDS011;27399;51.516;13.670;2023-03-31T10:37:53;4.85;;;1.08;;
41711;SDS011;27399;51.516;13.670;2023-03-31T10:40:22;5.57;;;1.10;;
41711;SDS011;27399;51.516;13.670;2023-03-31T10:43:24;5.33;;;1.20;;
41711;SDS011;27399;51.516;13.670;2023-03-31T10:46:02;7.00;;;1.50;;
41711;SDS011;27399;51.516;13.670;2023-03-31T10:48:29;3.75;;;1.10;;
41711;SDS011;27399;51.516;13.670;2023-03-31T10:51:00;3.70;;;1.20;;
41711;SDS011;27399;51.516;13.670;2023-03-31T10:53:28;2.88;;;1.17;;
41711;SDS011;27399;51.516;13.670;2023-03-31T10:56:04;5.88;;;1.45;;
41711;SDS011;27399;51.516;13.670;2023-03-31T10:58:46;4.93;;;1.48;;
41711;SDS011;27399;51.516;13.670;2023-03-31T11:07:05;4.50;;;1.75;;
41711;SDS011;27399;51.516;13.670;2023-03-31T11:09:35;5.78;;;1.20;;
41711;SDS011;27399;51.516;13.670;2023-03-31T11:12:25;6.45;;;1.15;;
41711;SDS011;27399;51.516;13.670;2023-03-31T11:23:20;6.38;;;2.10;;
41711;SDS011;27399;51.516;13.670;2023-03-31T11:28:55;12.18;;;2.05;;
41711;SDS011;27399;51.516;13.670;2023-03-31T11:31:32;3.75;;;1.50;;
41711;SDS011;27399;51.516;13.670;2023-03-31T11:42:41;7.00;;;1.70;;
41711;SDS011;27399;51.516;13.670;2023-03-31T11:45:22;6.55;;;1.83;;
41711;SDS011;27399;51.516;13.670;2023-03-31T11:48:14;6.28;;;1.88;;
41711;SDS011;27399;51.516;13.670;2023-03-31T11:50:57;4.10;;;2.30;;
41711;SDS011;27399;51.516;13.670;2023-03-31T11:53:30;8.23;;;1.58;;
41711;SDS011;27399;51.516;13.670;2023-03-31T11:56:00;4.93;;;1.33;;
41711;SDS011;27399;51.516;13.670;2023-03-31T11:58:46;3.97;;;1.30;;
41711;SDS011;27399;51.516;13.670;2023-03-31T12:01:19;2.65;;;1.00;;
41711;SDS011;27399;51.516;13.670;2023-03-31T12:03:55;3.42;;;1.15;;
41711;SDS011;27399;51.516;13.670;2023-03-31T12:06:29;3.25;;;1.02;;
41711;SDS011;27399;51.516;13.670;2023-03-31T12:09:04;2.38;;;1.08;;
41711;SDS011;27399;51.516;13.670;2023-03-31T12:11:39;2.38;;;1.33;;
41711;SDS011;27399;51.516;13.670;2023-03-31T12:17:10;5.63;;;1.55;;
41711;SDS011;27399;51.516;13.670;2023-03-31T12:19:53;4.22;;;1.40;;
41711;SDS011;27399;51.516;13.670;2023-03-31T12:22:28;5.50;;;1.55;;
41711;SDS011;27399;51.516;13.670;2023-03-31T12:24:58;5.28;;;1.40;;
41711;SDS011;27399;51.516;13.670;2023-03-31T12:32:42;5.60;;;1.42;;
41711;SDS011;27399;51.516;13.670;2023-03-31T12:35:20;2.47;;;1.50;;
41711;SDS011;27399;51.516;13.670;2023-03-31T12:40:41;4.75;;;1.67;;
41711;SDS011;27399;51.516;13.670;2023-03-31T12:45:54;4.18;;;1.42;;
41711;SDS011;27399;51.516;13.670;2023-03-31T12:48:31;4.65;;;1.55;;
41711;SDS011;27399;51.516;13.670;2023-03-31T12:59:35;4.45;;;1.85;;
41711;SDS011;27399;51.516;13.670;2023-03-31T13:04:41;3.65;;;1.20;;
41711;SDS011;27399;51.516;13.670;2023-03-31T13:07:50;3.67;;;1.23;;
41711;SDS011;27399;51.516;13.670;2023-03-31T13:12:52;3.53;;;1.23;;
41711;SDS011;27399;51.516;13.670;2023-03-31T13:15:37;2.47;;;1.08;;
41711;SDS011;27399;51.516;13.670;2023-03-31T13:18:04;3.30;;;1.73;;
41711;SDS011;27399;51.516;13.670;2023-03-31T13:20:35;4.20;;;1.67;;
41711;SDS011;27399;51.516;13.670;2023-03-31T13:25:45;6.38;;;2.10;;
41711;SDS011;27399;51.516;13.670;2023-03-31T13:38:58;3.78;;;1.52;;
41711;SDS011;27399;51.516;13.670;2023-03-31T13:44:36;4.90;;;1.60;;
41711;SDS011;27399;51.516;13.670;2023-03-31T13:50:15;7.28;;;1.73;;
41711;SDS011;27399;51.516;13.670;2023-03-31T14:03:37;3.58;;;1.75;;
41711;SDS011;27399;51.516;13.670;2023-03-31T14:06:22;13.52;;;4.57;;
41711;SDS011;27399;51.516;13.670;2023-03-31T14:08:56;13.98;;;4.10;;
41711;SDS011;27399;51.516;13.670;2023-03-31T14:11:26;9.40;;;2.22;;
41711;SDS011;27399;51.516;13.670;2023-03-31T14:14:00;6.15;;;1.73;;
41711;SDS011;27399;51.516;13.670;2023-03-31T14:16:36;7.07;;;2.10;;
41711;SDS011;27399;51.516;13.670;2023-03-31T14:19:08;6.35;;;2.67;;
41711;SDS011;27399;51.516;13.670;2023-03-31T14:39:00;3.38;;;1.73;;
41711;SDS011;27399;51.516;13.670;2023-03-31T14:41:28;3.45;;;1.52;;
41711;SDS011;27399;51.516;13.670;2023-03-31T14:43:54;5.18;;;1.38;;
41711;SDS011;27399;51.516;13.670;2023-03-31T14:46:22;2.30;;;1.17;;
41711;SDS011;27399;51.516;13.670;2023-03-31T14:48:49;4.03;;;1.00;;
41711;SDS011;27399;51.516;13.670;2023-03-31T14:51:17;1.70;;;1.15;;
41711;SDS011;27399;51.516;13.670;2023-03-31T14:53:54;4.80;;;1.13;;
41711;SDS011;27399;51.516;13.670;2023-03-31T14:56:27;2.05;;;1.17;;
41711;SDS011;27399;51.516;13.670;2023-03-31T14:58:58;4.95;;;1.42;;
41711;SDS011;27399;51.516;13.670;2023-03-31T15:01:27;4.95;;;1.48;;
41711;SDS011;27399;51.516;13.670;2023-03-31T15:03:58;4.35;;;1.42;;
41711;SDS011;27399;51.516;13.670;2023-03-31T15:06:25;1.98;;;1.20;;
41711;SDS011;27399;51.516;13.670;2023-03-31T15:08:51;2.38;;;0.98;;
41711;SDS011;27399;51.516;13.670;2023-03-31T15:11:21;2.70;;;1.27;;
41711;SDS011;27399;51.516;13.670;2023-03-31T15:13:47;2.17;;;0.95;;
41711;SDS011;27399;51.516;13.670;2023-03-31T15:19:00;2.05;;;1.17;;
41711;SDS011;27399;51.516;13.670;2023-03-31T15:21:35;2.05;;;1.27;;
41711;SDS011;27399;51.516;13.670;2023-03-31T15:24:02;1.45;;;0.95;;
41711;SDS011;27399;51.516;13.670;2023-03-31T15:26:40;2.40;;;1.25;;
41711;SDS011;27399;51.516;13.670;2023-03-31T15:29:23;2.17;;;1.08;;
41711;SDS011;27399;51.516;13.670;2023-03-31T15:31:57;2.60;;;1.00;;
41711;SDS011;27399;51.516;13.670;2023-03-31T15:34:29;1.05;;;0.77;;
41711;SDS011;27399;51.516;13.670;2023-03-31T15:37:01;1.27;;;0.98;;
41711;SDS011;27399;51.516;13.670;2023-03-31T15:39:29;26.80;;;2.10;;
41711;SDS011;27399;51.516;13.670;2023-03-31T15:41:57;1.88;;;0.80;;
41711;SDS011;27399;51.516;13.670;2023-03-31T15:44:29;3.45;;;0.90;;
41711;SDS011;27399;51.516;13.670;2023-03-31T15:49:53;1.23;;;0.70;;
41711;SDS011;27399;51.516;13.670;2023-03-31T15:54:57;1.63;;;0.98;;
41711;SDS011;27399;51.516;13.670;2023-03-31T15:57:29;1.30;;;0.80;;
41711;SDS011;27399;51.516;13.670;2023-03-31T15:59:59;2.22;;;1.38;;
41711;SDS011;27399;51.516;13.670;2023-03-31T16:02:37;1.40;;;0.80;;
41711;SDS011;27399;51.516;13.670;2023-03-31T16:05:14;0.93;;;0.70;;
41711;SDS011;27399;51.516;13.670;2023-03-31T16:07:47;3.05;;;1.25;;
41711;SDS011;27399;51.516;13.670;2023-03-31T16:10:15;1.88;;;1.33;;
41711;SDS011;27399;51.516;13.670;2023-03-31T16:13:02;2.25;;;1.05;;
41711;SDS011;27399;51.516;13.670;2023-03-31T16:15:32;1.90;;;1.10;;
41711;SDS011;27399;51.516;13.670;2023-03-31T16:18:04;1.77;;;1.17;;
41711;SDS011;27399;51.516;13.670;2023-03-31T16:20:35;2.25;;;1.40;;
41711;SDS011;27399;51.516;13.670;2023-03-31T16:26:08;4.50;;;2.05;;
41711;SDS011;27399;51.516;13.670;2023-03-31T16:28:35;2.35;;;1.10;;
41711;SDS011;27399;51.516;13.670;2023-03-31T16:31:02;1.98;;;1.17;;
41711;SDS011;27399;51.516;13.670;2023-03-31T16:33:29;3.88;;;1.20;;
41711;SDS011;27399;51.516;13.670;2023-03-31T16:36:15;2.60;;;1.40;;
41711;SDS011;27399;51.516;13.670;2023-03-31T16:38:41;2.05;;;0.90;;
41711;SDS011;27399;51.516;13.670;2023-03-31T16:41:07;1.75;;;0.80;;
41711;SDS011;27399;51.516;13.670;2023-03-31T16:43:33;3.53;;;0.88;;
41711;SDS011;27399;51.516;13.670;2023-03-31T16:45:59;1.35;;;0.90;;
41711;SDS011;27399;51.516;13.670;2023-03-31T16:48:28;7.90;;;1.15;;
41711;SDS011;27399;51.516;13.670;2023-03-31T16:53:25;3.65;;;1.33;;
41711;SDS011;27399;51.516;13.670;2023-03-31T16:55:53;2.50;;;1.00;;
41711;SDS011;27399;51.516;13.670;2023-03-31T16:58:19;1.85;;;0.90;;
41711;SDS011;27399;51.516;13.670;2023-03-31T17:00:48;1.88;;;0.85;;
41711;SDS011;27399;51.516;13.670;2023-03-31T17:03:14;1.23;;;0.70;;
41711;SDS011;27399;51.516;13.670;2023-03-31T17:05:41;2.85;;;1.30;;
41711;SDS011;27399;51.516;13.670;2023-03-31T17:08:11;3.13;;;0.70;;
41711;SDS011;27399;51.516;13.670;2023-03-31T17:10:38;1.13;;;0.65;;
41711;SDS011;27399;51.516;13.670;2023-03-31T17:13:05;1.25;;;0.75;;
41711;SDS011;27399;51.516;13.670;2023-03-31T17:15:32;0.95;;;0.80;;
41711;SDS011;27399;51.516;13.670;2023-03-31T17:18:00;0.70;;;0.65;;
41711;SDS011;27399;51.516;13.670;2023-03-31T17:20:27;1.48;;;0.80;;
41711;SDS011;27399;51.516;13.670;2023-03-31T17:22:54;0.75;;;0.50;;
41711;SDS011;27399;51.516;13.670;2023-03-31T17:25:20;2.92;;;0.80;;
41711;SDS011;27399;51.516;13.670;2023-03-31T17:27:46;0.75;;;0.40;;
41711;SDS011;27399;51.516;13.670;2023-03-31T17:30:12;3.00;;;0.60;;
41711;SDS011;27399;51.516;13.670;2023-03-31T17:32:38;19.33;;;11.25;;
41711;SDS011;27399;51.516;13.670;2023-03-31T17:35:04;24.58;;;13.75;;
41711;SDS011;27399;51.516;13.670;2023-03-31T17:37:31;18.30;;;9.63;;
41711;SDS011;27399;51.516;13.670;2023-03-31T17:39:57;7.55;;;4.63;;
41711;SDS011;27399;51.516;13.670;2023-03-31T17:42:23;7.60;;;4.30;;